Time;durP1;ratioP1;P1;durP2;ratioP2;P2;SDS_P1;SDS_P2;PMS_P1;PMS_P2;Temp;Humidity;BMP_temperature;BMP_pressure;BME280_temperature;BME280_humidity;BME280_pressure;Samples;Min_cycle;Max_cycle;Signal;HPM_P1;HPM_P2
2022/03/29 00:01:17;;;;;;;11.27;7.87;;;;;;;;;;5077088;28;20184;-77
2022/03/29 00:03:43;;;;;;;10.53;7.60;;;;;;;;;;5077229;28;20305;-77
2022/03/29 00:06:09;;;;;;;13.50;8.57;;;;;;;;;;5077231;28;20610;-76
2022/03/29 00:08:36;;;;;;;13.30;8.00;;;;;;;;;;5094239;28;20197;-77
2022/03/29 00:11:02;;;;;;;13.57;8.53;;;;;;;;;;5078949;28;20209;-77
2022/03/29 00:13:28;;;;;;;11.33;7.50;;;;;;;;;;5097486;28;20228;-77
2022/03/29 00:15:54;;;;;;;13.07;8.10;;;;;;;;;;5115951;28;20168;-77
2022/03/29 00:18:20;;;;;;;12.33;7.23;;;;;;;;;;5097719;28;20182;-77
2022/03/29 00:20:46;;;;;;;11.67;7.60;;;;;;;;;;5080919;28;20209;-77
2022/03/29 00:23:12;;;;;;;13.73;8.00;;;;;;;;;;5097270;28;20292;-77
2022/03/29 00:25:38;;;;;;;12.30;7.60;;;;;;;;;;5097532;28;20177;-77
2022/03/29 00:28:04;;;;;;;10.27;7.50;;;;;;;;;;5080666;28;20201;-77
2022/03/29 00:30:30;;;;;;;12.27;7.83;;;;;;;;;;5097377;28;20221;-77
2022/03/29 00:32:57;;;;;;;11.80;8.17;;;;;;;;;;5080223;28;20572;-77
2022/03/29 00:35:24;;;;;;;13.57;8.17;;;;;;;;;;5097585;28;20230;-77
2022/03/29 00:37:51;;;;;;;14.90;8.40;;;;;;;;;;5097358;28;20176;-77
2022/03/29 00:40:19;;;;;;;11.90;8.07;;;;;;;;;;5097246;28;20557;-77
2022/03/29 00:42:45;;;;;;;12.97;8.17;;;;;;;;;;5096828;28;20257;-77
2022/03/29 00:45:11;;;;;;;12.70;8.30;;;;;;;;;;5097139;28;20647;-77
2022/03/29 00:47:37;;;;;;;11.37;8.47;;;;;;;;;;5080598;28;20173;-77
2022/03/29 00:50:04;;;;;;;13.47;8.20;;;;;;;;;;5080500;28;20240;-77
2022/03/29 00:52:30;;;;;;;13.60;8.13;;;;;;;;;;5080118;28;20186;-77
2022/03/29 00:54:57;;;;;;;12.73;8.10;;;;;;;;;;5080169;28;20247;-77
2022/03/29 00:57:23;;;;;;;12.77;8.70;;;;;;;;;;5096546;28;20181;-77
2022/03/29 00:59:50;;;;;;;12.13;8.37;;;;;;;;;;5080141;28;20186;-77
2022/03/29 01:02:16;;;;;;;14.73;8.73;;;;;;;;;;5096596;28;20205;-77
2022/03/29 01:04:42;;;;;;;13.03;8.50;;;;;;;;;;5096949;28;20205;-77
2022/03/29 01:07:08;;;;;;;13.57;8.53;;;;;;;;;;5096948;28;20174;-77
2022/03/29 01:09:35;;;;;;;11.30;7.67;;;;;;;;;;5096837;28;20173;-77
2022/03/29 01:12:01;;;;;;;11.87;8.20;;;;;;;;;;5096457;28;20271;-76
2022/03/29 01:14:28;;;;;;;13.43;8.67;;;;;;;;;;5079759;28;20280;-77
2022/03/29 01:19:41;;;;;;;11.80;8.17;;;;;;;;;;5115065;28;20607;-76
2022/03/29 01:22:09;;;;;;;13.70;8.20;;;;;;;;;;5095981;28;20221;-77
2022/03/29 01:24:36;;;;;;;11.73;7.87;;;;;;;;;;5114596;28;20245;-77
2022/03/29 01:27:03;;;;;;;13.77;9.10;;;;;;;;;;5096515;28;20167;-77
2022/03/29 01:29:29;;;;;;;12.53;8.10;;;;;;;;;;5096294;28;20258;-76
2022/03/29 01:31:57;;;;;;;13.93;9.20;;;;;;;;;;5096035;28;20221;-77
2022/03/29 01:34:23;;;;;;;14.70;9.37;;;;;;;;;;5095889;28;20702;-77
2022/03/29 01:36:49;;;;;;;12.63;8.70;;;;;;;;;;5079452;28;20563;-77
2022/03/29 01:39:15;;;;;;;13.33;9.03;;;;;;;;;;5079610;28;20206;-76
2022/03/29 01:41:41;;;;;;;15.33;9.30;;;;;;;;;;5095871;28;20203;-77
2022/03/29 01:44:08;;;;;;;12.47;8.93;;;;;;;;;;5114172;28;20227;-77
2022/03/29 01:46:34;;;;;;;14.37;8.73;;;;;;;;;;5114205;28;20268;-77
2022/03/29 01:49:01;;;;;;;12.70;9.00;;;;;;;;;;5095809;28;20372;-76
2022/03/29 01:51:27;;;;;;;13.77;9.13;;;;;;;;;;5095899;28;20218;-77
2022/03/29 01:53:54;;;;;;;14.23;8.93;;;;;;;;;;5095937;28;20201;-76
2022/03/29 01:56:20;;;;;;;12.10;8.43;;;;;;;;;;5095751;28;20262;-76
2022/03/29 01:58:46;;;;;;;12.50;8.80;;;;;;;;;;5078993;28;20700;-76
2022/03/29 02:01:12;;;;;;;12.67;8.33;;;;;;;;;;5095469;28;20178;-77
2022/03/29 02:03:39;;;;;;;11.97;8.53;;;;;;;;;;5078502;28;20211;-77
2022/03/29 02:06:05;;;;;;;15.13;9.60;;;;;;;;;;5095747;28;20178;-77
2022/03/29 02:08:31;;;;;;;14.93;8.97;;;;;;;;;;5095419;28;20183;-77
2022/03/29 02:10:57;;;;;;;13.40;9.07;;;;;;;;;;5095527;28;20178;-76
2022/03/29 02:13:23;;;;;;;12.47;8.60;;;;;;;;;;5078400;28;20198;-77
2022/03/29 02:15:49;;;;;;;13.13;8.93;;;;;;;;;;5078675;28;20190;-77
2022/03/29 02:18:15;;;;;;;14.97;9.20;;;;;;;;;;5078602;28;20202;-76
2022/03/29 02:20:42;;;;;;;13.50;9.00;;;;;;;;;;5078449;28;20277;-77
2022/03/29 02:23:09;;;;;;;13.87;8.80;;;;;;;;;;5095110;28;20291;-76
2022/03/29 02:25:38;;;;;;;11.87;8.73;;;;;;;;;;5078452;28;20606;-76
2022/03/29 02:28:04;;;;;;;15.67;10.40;;;;;;;;;;5095442;28;20167;-77
2022/03/29 02:30:32;;;;;;;14.93;9.87;;;;;;;;;;5094969;28;20200;-76
2022/03/29 02:32:58;;;;;;;16.33;9.27;;;;;;;;;;5094552;28;20199;-77
2022/03/29 02:35:24;;;;;;;16.57;9.20;;;;;;;;;;5094833;28;20182;-77
2022/03/29 02:37:51;;;;;;;14.40;8.80;;;;;;;;;;5095246;28;20255;-77
2022/03/29 02:40:17;;;;;;;14.90;9.40;;;;;;;;;;5078154;28;20179;-77
2022/03/29 02:42:43;;;;;;;15.43;8.93;;;;;;;;;;5077916;28;20286;-77
2022/03/29 02:45:12;;;;;;;13.83;9.07;;;;;;;;;;5113043;28;20175;-77
2022/03/29 02:47:38;;;;;;;17.83;10.00;;;;;;;;;;5094726;28;20186;-77
2022/03/29 02:50:04;;;;;;;17.33;10.73;;;;;;;;;;5113050;28;20626;-77
2022/03/29 02:52:30;;;;;;;16.60;10.07;;;;;;;;;;5077934;28;20179;-77
2022/03/29 02:54:56;;;;;;;16.47;10.33;;;;;;;;;;5077786;28;20214;-77
2022/03/29 02:57:22;;;;;;;16.97;10.03;;;;;;;;;;5094849;28;20182;-77
2022/03/29 02:59:49;;;;;;;16.20;10.10;;;;;;;;;;5077822;28;20214;-77
2022/03/29 03:02:15;;;;;;;18.50;10.37;;;;;;;;;;5077661;28;20808;-77
2022/03/29 03:04:41;;;;;;;17.13;10.40;;;;;;;;;;5094688;28;20198;-77
2022/03/29 03:07:07;;;;;;;13.87;9.53;;;;;;;;;;5094937;28;20168;-77
2022/03/29 03:09:33;;;;;;;18.07;10.30;;;;;;;;;;5112667;28;20217;-77
2022/03/29 03:11:59;;;;;;;15.70;9.80;;;;;;;;;;5077767;28;20180;-77
2022/03/29 03:14:25;;;;;;;15.23;9.90;;;;;;;;;;5077519;28;20195;-77
2022/03/29 03:16:51;;;;;;;16.10;9.70;;;;;;;;;;5094571;28;20238;-77
2022/03/29 03:19:18;;;;;;;16.57;9.97;;;;;;;;;;5077732;28;20252;-77
2022/03/29 03:21:44;;;;;;;17.57;10.10;;;;;;;;;;5094392;28;20200;-77
2022/03/29 03:24:10;;;;;;;16.97;10.40;;;;;;;;;;5077509;28;20566;-77
2022/03/29 03:26:36;;;;;;;17.70;10.83;;;;;;;;;;5077564;28;20179;-77
2022/03/29 03:29:02;;;;;;;16.80;10.27;;;;;;;;;;5077499;28;20176;-77
2022/03/29 03:31:28;;;;;;;18.53;10.07;;;;;;;;;;5077322;28;20596;-77
2022/03/29 03:33:54;;;;;;;16.27;10.30;;;;;;;;;;5077372;28;20735;-77
2022/03/29 03:36:20;;;;;;;19.33;10.77;;;;;;;;;;5078028;28;20190;-77
2022/03/29 03:38:47;;;;;;;17.50;10.40;;;;;;;;;;5077563;28;20190;-77
2022/03/29 03:41:13;;;;;;;16.77;9.90;;;;;;;;;;5077440;28;20236;-77
2022/03/29 03:43:39;;;;;;;17.50;10.40;;;;;;;;;;5112090;28;20680;-77
2022/03/29 03:46:05;;;;;;;18.60;11.13;;;;;;;;;;5081237;28;20565;-77
2022/03/29 03:48:31;;;;;;;18.37;10.40;;;;;;;;;;5081822;28;20670;-77
2022/03/29 03:50:57;;;;;;;15.53;9.87;;;;;;;;;;5098193;28;20191;-77
2022/03/29 03:53:23;;;;;;;14.77;9.80;;;;;;;;;;5081117;28;20199;-77
2022/03/29 03:55:49;;;;;;;19.77;10.50;;;;;;;;;;5081430;28;20182;-77
2022/03/29 03:58:16;;;;;;;17.37;10.13;;;;;;;;;;5081281;28;20190;-77
2022/03/29 04:00:42;;;;;;;16.33;9.80;;;;;;;;;;5116324;28;20186;-77
2022/03/29 04:03:09;;;;;;;18.33;10.73;;;;;;;;;;5080832;28;20715;-77
2022/03/29 04:05:35;;;;;;;16.77;9.90;;;;;;;;;;5081168;28;20244;-77
2022/03/29 04:08:01;;;;;;;16.73;10.30;;;;;;;;;;5098144;28;20185;-77
2022/03/29 04:10:27;;;;;;;15.97;10.40;;;;;;;;;;5097906;28;20237;-77
2022/03/29 04:12:54;;;;;;;15.80;9.70;;;;;;;;;;5080704;28;20191;-77
2022/03/29 04:15:20;;;;;;;16.27;10.00;;;;;;;;;;5080891;28;20218;-77
2022/03/29 04:17:46;;;;;;;19.03;11.30;;;;;;;;;;5097856;28;20250;-77
2022/03/29 04:20:12;;;;;;;18.27;10.30;;;;;;;;;;5097972;28;20189;-77
2022/03/29 04:22:38;;;;;;;17.23;10.50;;;;;;;;;;5097186;28;20209;-77
2022/03/29 04:25:04;;;;;;;15.43;9.63;;;;;;;;;;5080692;28;20552;-77
2022/03/29 04:27:31;;;;;;;16.70;9.97;;;;;;;;;;5097287;28;20190;-77
2022/03/29 04:29:57;;;;;;;17.20;9.33;;;;;;;;;;5097747;28;20182;-77
2022/03/29 04:32:23;;;;;;;18.53;10.47;;;;;;;;;;5097526;28;20179;-77
2022/03/29 04:34:49;;;;;;;18.83;10.20;;;;;;;;;;5097446;28;20206;-77
2022/03/29 04:37:15;;;;;;;17.47;9.87;;;;;;;;;;5097433;28;20216;-77
2022/03/29 04:39:41;;;;;;;14.53;10.30;;;;;;;;;;5080529;28;20668;-77
2022/03/29 04:42:07;;;;;;;18.40;10.77;;;;;;;;;;5080321;28;20183;-77
2022/03/29 04:44:36;;;;;;;17.97;10.43;;;;;;;;;;5097360;28;20228;-77
2022/03/29 04:47:04;;;;;;;17.53;10.50;;;;;;;;;;5080809;28;20179;-77
2022/03/29 04:49:30;;;;;;;16.23;9.97;;;;;;;;;;5097102;28;20265;-77
2022/03/29 04:51:56;;;;;;;16.30;10.93;;;;;;;;;;5115248;28;20182;-77
2022/03/29 04:54:23;;;;;;;17.63;10.43;;;;;;;;;;5097222;28;20210;-77
2022/03/29 04:56:49;;;;;;;17.50;10.07;;;;;;;;;;5096350;28;20182;-77
2022/03/29 04:59:15;;;;;;;16.23;10.33;;;;;;;;;;5080316;28;20177;-77
2022/03/29 05:01:41;;;;;;;15.97;10.87;;;;;;;;;;5096730;28;20549;-76
2022/03/29 05:04:09;;;;;;;17.53;10.57;;;;;;;;;;5080047;28;20263;-77
2022/03/29 05:06:35;;;;;;;15.37;10.60;;;;;;;;;;5096677;28;20194;-77
2022/03/29 05:09:01;;;;;;;21.53;10.90;;;;;;;;;;5096751;28;20240;-77
2022/03/29 05:11:27;;;;;;;17.20;10.90;;;;;;;;;;5080038;28;20210;-77
2022/03/29 05:13:53;;;;;;;14.57;10.10;;;;;;;;;;5079849;28;20199;-77
2022/03/29 05:16:20;;;;;;;15.57;10.27;;;;;;;;;;5079845;28;20182;-77
2022/03/29 05:18:46;;;;;;;16.93;10.67;;;;;;;;;;5079821;28;20186;-77
2022/03/29 05:21:12;;;;;;;15.33;10.40;;;;;;;;;;5079855;28;20560;-77
2022/03/29 05:23:38;;;;;;;18.70;11.00;;;;;;;;;;5114446;28;20671;-77
2022/03/29 05:26:04;;;;;;;18.73;11.50;;;;;;;;;;5096432;28;20181;-78
2022/03/29 05:28:31;;;;;;;19.90;11.20;;;;;;;;;;5096411;28;20228;-78
2022/03/29 05:30:57;;;;;;;18.03;11.30;;;;;;;;;;5096176;28;20170;-77
2022/03/29 05:33:23;;;;;;;15.77;10.37;;;;;;;;;;5096029;28;20680;-78
2022/03/29 05:35:49;;;;;;;18.17;10.73;;;;;;;;;;5096304;28;20182;-77
2022/03/29 05:38:15;;;;;;;16.67;10.43;;;;;;;;;;5096341;28;20177;-78
2022/03/29 05:40:41;;;;;;;19.17;11.53;;;;;;;;;;5096279;28;20213;-77
2022/03/29 05:43:11;;;;;;;19.00;11.67;;;;;;;;;;5079230;28;20213;-76
2022/03/29 05:45:37;;;;;;;22.50;12.93;;;;;;;;;;5096135;28;20208;-80
2022/03/29 05:50:49;;;;;;;16.67;10.07;;;;;;;;;;5114559;28;20213;-78
2022/03/29 05:53:15;;;;;;;19.77;11.70;;;;;;;;;;5095981;28;20566;-78
2022/03/29 05:55:41;;;;;;;17.80;10.50;;;;;;;;;;5096366;28;20179;-79
2022/03/29 05:58:07;;;;;;;18.87;10.77;;;;;;;;;;5096860;28;20183;-78
2022/03/29 06:00:33;;;;;;;15.83;10.40;;;;;;;;;;5079856;28;20175;-77
2022/03/29 06:02:59;;;;;;;17.37;9.77;;;;;;;;;;5078605;28;20211;-77
2022/03/29 06:05:25;;;;;;;18.20;10.37;;;;;;;;;;5078861;28;20228;-77
2022/03/29 06:07:51;;;;;;;17.07;10.67;;;;;;;;;;5077860;28;20179;-77
2022/03/29 06:10:17;;;;;;;17.40;11.10;;;;;;;;;;5095847;28;20183;-78
2022/03/29 06:12:47;;;;;;;17.90;11.27;;;;;;;;;;5095428;28;20195;-77
2022/03/29 06:15:13;;;;;;;18.40;11.37;;;;;;;;;;5095273;28;20186;-77
2022/03/29 06:17:40;;;;;;;19.00;11.27;;;;;;;;;;5078594;28;20211;-78
2022/03/29 06:20:07;;;;;;;17.93;11.53;;;;;;;;;;5095175;28;20183;-77
2022/03/29 06:22:37;;;;;;;17.10;10.97;;;;;;;;;;5094816;28;20202;-77
2022/03/29 06:25:03;;;;;;;19.27;11.40;;;;;;;;;;5113557;28;20174;-77
2022/03/29 06:27:29;;;;;;;18.37;11.67;;;;;;;;;;5078790;28;20178;-77
2022/03/29 06:29:57;;;;;;;18.77;11.63;;;;;;;;;;5078540;28;20183;-77
2022/03/29 06:32:23;;;;;;;19.43;11.53;;;;;;;;;;5078215;28;20641;-77
2022/03/29 06:34:50;;;;;;;21.57;12.27;;;;;;;;;;5095119;28;20211;-77
2022/03/29 06:37:16;;;;;;;18.53;11.37;;;;;;;;;;5095140;28;20182;-77
2022/03/29 06:39:42;;;;;;;17.70;11.63;;;;;;;;;;5094868;28;20179;-77
2022/03/29 06:42:09;;;;;;;18.30;12.33;;;;;;;;;;5078058;28;20185;-77
2022/03/29 06:44:35;;;;;;;21.83;13.10;;;;;;;;;;5094804;28;20209;-77
2022/03/29 06:47:01;;;;;;;18.60;11.13;;;;;;;;;;5094791;28;20175;-77
2022/03/29 06:49:28;;;;;;;18.43;11.70;;;;;;;;;;5095042;28;20227;-77
2022/03/29 06:51:54;;;;;;;21.73;12.53;;;;;;;;;;5094475;28;20209;-77
2022/03/29 06:54:20;;;;;;;19.97;11.63;;;;;;;;;;5078047;28;20234;-77
2022/03/29 06:56:50;;;;;;;17.50;12.00;;;;;;;;;;5077885;28;20190;-77
2022/03/29 06:59:16;;;;;;;22.00;13.50;;;;;;;;;;5078433;28;20636;-77
2022/03/29 07:01:42;;;;;;;19.10;12.27;;;;;;;;;;5094831;28;20175;-77
2022/03/29 07:04:09;;;;;;;19.60;12.67;;;;;;;;;;5077914;28;20219;-77
2022/03/29 07:06:35;;;;;;;17.80;11.70;;;;;;;;;;5113061;28;20174;-77
2022/03/29 07:11:46;;;;;;;18.97;11.80;;;;;;;;;;5112851;28;20191;-77
2022/03/29 07:14:13;;;;;;;21.50;12.93;;;;;;;;;;5094283;28;20657;-77
2022/03/29 07:16:41;;;;;;;18.77;12.33;;;;;;;;;;5094597;28;20176;-77
2022/03/29 07:19:10;;;;;;;22.43;12.43;;;;;;;;;;5094402;28;20271;-77
2022/03/29 07:21:39;;;;;;;18.73;12.30;;;;;;;;;;5077954;28;20187;-77
2022/03/29 07:24:08;;;;;;;20.90;12.30;;;;;;;;;;5078010;28;20211;-77
2022/03/29 07:26:35;;;;;;;20.93;12.00;;;;;;;;;;5094250;28;20182;-77
2022/03/29 07:29:01;;;;;;;18.90;12.00;;;;;;;;;;5094454;28;20262;-77
2022/03/29 07:31:28;;;;;;;20.63;12.20;;;;;;;;;;5094368;28;20175;-77
2022/03/29 07:33:54;;;;;;;21.33;13.23;;;;;;;;;;5094168;28;20215;-77
2022/03/29 07:36:20;;;;;;;19.43;12.63;;;;;;;;;;5094594;28;20181;-77
2022/03/29 07:38:46;;;;;;;20.80;12.60;;;;;;;;;;5094200;28;20179;-77
2022/03/29 07:41:12;;;;;;;22.83;12.83;;;;;;;;;;5094135;28;20529;-77
2022/03/29 07:43:38;;;;;;;18.47;12.20;;;;;;;;;;5093874;28;20203;-77
2022/03/29 07:46:04;;;;;;;21.60;13.60;;;;;;;;;;5112348;28;20217;-77
2022/03/29 07:48:30;;;;;;;19.50;12.53;;;;;;;;;;5094310;28;20262;-77
2022/03/29 07:50:56;;;;;;;21.80;13.37;;;;;;;;;;5094164;28;20268;-77
2022/03/29 07:53:25;;;;;;;22.23;12.83;;;;;;;;;;5077178;28;20231;-77
2022/03/29 07:55:51;;;;;;;21.07;13.03;;;;;;;;;;5094018;28;20258;-77
2022/03/29 07:58:19;;;;;;;22.40;13.00;;;;;;;;;;5094007;28;20206;-77
2022/03/29 08:00:49;;;;;;;19.23;12.67;;;;;;;;;;5112276;28;20168;-77
2022/03/29 08:03:16;;;;;;;19.83;13.37;;;;;;;;;;5077919;28;20212;-77
2022/03/29 08:05:43;;;;;;;23.77;13.33;;;;;;;;;;5094101;28;20180;-77
2022/03/29 08:08:11;;;;;;;20.87;13.77;;;;;;;;;;5093848;28;20202;-77
2022/03/29 08:10:38;;;;;;;22.77;14.03;;;;;;;;;;5094383;28;20179;-77
2022/03/29 08:13:04;;;;;;;20.43;13.63;;;;;;;;;;5077185;28;20224;-77
2022/03/29 08:15:31;;;;;;;22.70;13.47;;;;;;;;;;5077257;28;20177;-77
2022/03/29 08:17:57;;;;;;;21.53;13.87;;;;;;;;;;5112099;28;20195;-77
2022/03/29 08:20:23;;;;;;;25.87;15.07;;;;;;;;;;5093782;28;20239;-77
2022/03/29 08:22:49;;;;;;;21.57;13.63;;;;;;;;;;5076673;28;20673;-77
2022/03/29 08:25:16;;;;;;;23.43;13.63;;;;;;;;;;5077432;28;20266;-77
2022/03/29 08:27:44;;;;;;;23.63;14.60;;;;;;;;;;5077507;28;20182;-77
2022/03/29 08:30:11;;;;;;;23.20;14.60;;;;;;;;;;5093650;28;20168;-77
2022/03/29 08:32:37;;;;;;;22.53;13.90;;;;;;;;;;5096056;28;20178;-77
2022/03/29 08:35:04;;;;;;;24.30;13.83;;;;;;;;;;5097922;28;20194;-77
2022/03/29 08:37:30;;;;;;;23.70;13.80;;;;;;;;;;5097268;28;20233;-77
2022/03/29 08:39:56;;;;;;;23.23;14.67;;;;;;;;;;5097518;28;20182;-77
2022/03/29 08:42:23;;;;;;;21.83;13.90;;;;;;;;;;5097138;28;20276;-77
2022/03/29 08:44:49;;;;;;;22.10;13.77;;;;;;;;;;5097069;28;20224;-77
2022/03/29 08:47:16;;;;;;;21.07;13.60;;;;;;;;;;5115708;28;20212;-77
2022/03/29 08:49:43;;;;;;;19.53;13.23;;;;;;;;;;5097068;28;20173;-77
2022/03/29 08:52:11;;;;;;;19.50;13.20;;;;;;;;;;5114961;28;20540;-77
2022/03/29 08:54:37;;;;;;;20.67;13.60;;;;;;;;;;5096942;28;20199;-77
2022/03/29 08:57:03;;;;;;;21.30;13.13;;;;;;;;;;5096923;28;20602;-77
2022/03/29 08:59:29;;;;;;;22.13;13.50;;;;;;;;;;5097098;28;20183;-77
2022/03/29 09:01:58;;;;;;;22.13;12.70;;;;;;;;;;5115302;28;20260;-77
2022/03/29 09:04:26;;;;;;;20.00;13.03;;;;;;;;;;5114893;28;20278;-77
2022/03/29 09:06:54;;;;;;;23.00;13.07;;;;;;;;;;5097059;28;20182;-77
2022/03/29 09:09:22;;;;;;;19.10;12.93;;;;;;;;;;5096800;28;20216;-76
2022/03/29 09:11:48;;;;;;;20.57;13.00;;;;;;;;;;5096515;28;20168;-78
2022/03/29 09:14:14;;;;;;;18.60;12.70;;;;;;;;;;5096618;28;20208;-77
2022/03/29 09:16:41;;;;;;;18.83;12.37;;;;;;;;;;5096663;28;20183;-77
2022/03/29 09:19:09;;;;;;;15.87;10.47;;;;;;;;;;5079928;28;20669;-76
2022/03/29 09:21:42;;;;;;;15.73;10.40;;;;;;;;;;5096739;28;20540;-76
2022/03/29 09:24:11;;;;;;;14.47;10.57;;;;;;;;;;5096495;28;20260;-77
2022/03/29 09:26:40;;;;;;;16.27;11.47;;;;;;;;;;5096586;28;20554;-77
2022/03/29 09:29:17;;;;;;;15.83;10.47;;;;;;;;;;5079725;28;20221;-77
2022/03/29 09:31:43;;;;;;;14.77;10.07;;;;;;;;;;5114633;28;20176;-77
2022/03/29 09:34:10;;;;;;;14.27;9.47;;;;;;;;;;5096235;28;20234;-78
2022/03/29 09:36:44;;;;;;;15.27;10.33;;;;;;;;;;5096346;28;20176;-77
2022/03/29 09:39:29;;;;;;;16.43;9.87;;;;;;;;;;5096385;28;20179;-76
2022/03/29 09:41:57;;;;;;;14.27;9.33;;;;;;;;;;5092603;28;20279;-76
2022/03/29 09:44:32;;;;;;;15.33;9.20;;;;;;;;;;5089747;28;20199;-77
2022/03/29 09:47:04;;;;;;;12.10;8.77;;;;;;;;;;5114522;28;20178;-76
2022/03/29 09:49:30;;;;;;;14.73;8.53;;;;;;;;;;5086953;28;20690;-77
2022/03/29 09:52:10;;;;;;;14.10;9.83;;;;;;;;;;5092234;28;20169;-78
2022/03/29 09:54:36;;;;;;;15.63;10.00;;;;;;;;;;5114708;28;20223;-77
2022/03/29 09:57:03;;;;;;;13.80;9.67;;;;;;;;;;5079672;28;20278;-77
2022/03/29 09:59:31;;;;;;;12.30;8.40;;;;;;;;;;5097352;28;20174;-78
2022/03/29 10:01:58;;;;;;;12.63;8.00;;;;;;;;;;5096066;28;20178;-77
2022/03/29 10:04:25;;;;;;;10.37;7.73;;;;;;;;;;5114451;28;20210;-78
2022/03/29 10:06:52;;;;;;;14.53;8.57;;;;;;;;;;5096067;28;20183;-78
2022/03/29 10:09:38;;;;;;;14.37;9.10;;;;;;;;;;5096168;28;20176;-77
2022/03/29 10:12:05;;;;;;;12.00;7.90;;;;;;;;;;5096323;28;20172;-77
2022/03/29 10:14:40;;;;;;;12.87;7.50;;;;;;;;;;5095869;28;20670;-77
2022/03/29 10:17:07;;;;;;;13.07;7.67;;;;;;;;;;5114280;28;20691;-77
2022/03/29 10:19:33;;;;;;;11.80;7.67;;;;;;;;;;5095890;28;20179;-78
2022/03/29 10:22:01;;;;;;;10.03;7.43;;;;;;;;;;5095943;28;20172;-76
2022/03/29 10:24:29;;;;;;;10.43;7.83;;;;;;;;;;5095648;28;20211;-76
2022/03/29 10:26:59;;;;;;;10.80;7.90;;;;;;;;;;5095757;28;20182;-76
2022/03/29 10:29:26;;;;;;;10.30;6.97;;;;;;;;;;5079476;28;20250;-76
2022/03/29 10:31:53;;;;;;;9.83;7.03;;;;;;;;;;5078765;28;20181;-76
2022/03/29 10:34:26;;;;;;;11.20;6.80;;;;;;;;;;5094966;28;20213;-76
2022/03/29 10:36:59;;;;;;;8.97;6.40;;;;;;;;;;5113350;28;20650;-76
2022/03/29 10:39:41;;;;;;;8.63;5.93;;;;;;;;;;5095330;28;20175;-76
2022/03/29 10:42:27;;;;;;;9.17;6.57;;;;;;;;;;5094812;28;20180;-76
2022/03/29 10:45:13;;;;;;;8.83;6.50;;;;;;;;;;5094850;28;20286;-76
2022/03/29 10:47:39;;;;;;;8.90;6.70;;;;;;;;;;5095086;28;20516;-76
2022/03/29 10:50:07;;;;;;;7.43;4.80;;;;;;;;;;5078091;28;20546;-76
2022/03/29 10:52:38;;;;;;;6.87;4.13;;;;;;;;;;5078250;28;20179;-76
2022/03/29 10:55:16;;;;;;;7.27;4.30;;;;;;;;;;5077369;28;20187;-76
2022/03/29 10:58:02;;;;;;;7.77;3.87;;;;;;;;;;5094941;28;20172;-76
2022/03/29 11:00:31;;;;;;;8.93;4.67;;;;;;;;;;5094789;28;20225;-76
2022/03/29 11:03:09;;;;;;;6.73;4.60;;;;;;;;;;5094341;28;20211;-76
2022/03/29 11:05:54;;;;;;;6.30;4.80;;;;;;;;;;5112806;28;20168;-76
2022/03/29 11:08:21;;;;;;;7.10;5.13;;;;;;;;;;5094686;28;20194;-76
2022/03/29 11:10:47;;;;;;;8.20;5.37;;;;;;;;;;5094660;28;20630;-76
2022/03/29 11:13:23;;;;;;;5.80;4.37;;;;;;;;;;5094531;28;20207;-76
2022/03/29 11:15:50;;;;;;;6.60;5.00;;;;;;;;;;5094539;28;20182;-76
2022/03/29 11:18:31;;;;;;;7.57;5.20;;;;;;;;;;5094515;28;20270;-76
2022/03/29 11:21:02;;;;;;;7.33;6.03;;;;;;;;;;5094562;28;20175;-76
2022/03/29 11:23:32;;;;;;;8.07;6.07;;;;;;;;;;5094289;28;20211;-76
2022/03/29 11:26:04;;;;;;;7.73;6.00;;;;;;;;;;5094647;28;20172;-76
2022/03/29 11:28:31;;;;;;;9.57;6.47;;;;;;;;;;5094387;28;20171;-76
2022/03/29 11:30:58;;;;;;;7.27;5.87;;;;;;;;;;5077734;28;20180;-76
2022/03/29 11:33:34;;;;;;;10.97;6.73;;;;;;;;;;5112097;28;20229;-76
2022/03/29 11:36:01;;;;;;;7.77;5.70;;;;;;;;;;5077633;28;20179;-79
2022/03/29 11:38:31;;;;;;;9.67;6.10;;;;;;;;;;5094295;28;20175;-76
2022/03/29 11:40:57;;;;;;;9.00;5.63;;;;;;;;;;5094257;28;20180;-76
2022/03/29 11:43:24;;;;;;;7.30;5.67;;;;;;;;;;5077257;28;20219;-76
2022/03/29 11:45:52;;;;;;;8.77;5.63;;;;;;;;;;5094235;28;20225;-76
2022/03/29 11:48:20;;;;;;;7.83;5.37;;;;;;;;;;5094014;28;20228;-76
2022/03/29 11:50:53;;;;;;;8.30;5.50;;;;;;;;;;5077636;28;20207;-76
2022/03/29 11:53:22;;;;;;;7.93;5.27;;;;;;;;;;5093945;28;20223;-76
2022/03/29 11:55:58;;;;;;;7.47;5.30;;;;;;;;;;5094216;28;20176;-76
2022/03/29 11:58:44;;;;;;;8.27;5.87;;;;;;;;;;5094218;28;20182;-76
2022/03/29 12:01:11;;;;;;;7.13;5.33;;;;;;;;;;5093886;28;20176;-76
2022/03/29 12:03:37;;;;;;;7.23;5.70;;;;;;;;;;5093619;28;20218;-76
2022/03/29 12:06:06;;;;;;;6.73;5.10;;;;;;;;;;5094401;28;20171;-76
2022/03/29 12:08:42;;;;;;;7.37;5.27;;;;;;;;;;5098095;28;20172;-76
2022/03/29 12:11:12;;;;;;;6.63;5.10;;;;;;;;;;5097869;28;20370;-76
2022/03/29 12:13:38;;;;;;;6.33;4.87;;;;;;;;;;5081260;28;20207;-76
2022/03/29 12:16:20;;;;;;;8.17;4.90;;;;;;;;;;5097709;28;20266;-76
2022/03/29 12:18:46;;;;;;;6.23;5.30;;;;;;;;;;5116343;28;20201;-76
2022/03/29 12:21:14;;;;;;;8.13;5.20;;;;;;;;;;5081234;28;20179;-76
2022/03/29 12:23:41;;;;;;;7.20;5.40;;;;;;;;;;5081342;28;20224;-76
2022/03/29 12:26:08;;;;;;;6.70;4.80;;;;;;;;;;5116537;28;20648;-77
2022/03/29 12:28:35;;;;;;;6.27;5.00;;;;;;;;;;5098329;28;20176;-77
2022/03/29 12:31:01;;;;;;;8.43;4.90;;;;;;;;;;5081365;28;20277;-77
2022/03/29 12:33:27;;;;;;;4.90;4.43;;;;;;;;;;5097612;28;20238;-77
2022/03/29 12:36:24;;;;;;;5.87;4.50;;;;;;;;;;5098300;28;20229;-77
2022/03/29 12:38:51;;;;;;;6.03;4.30;;;;;;;;;;5081637;28;20179;-77
2022/03/29 12:41:37;;;;;;;7.87;4.30;;;;;;;;;;5097667;28;20175;-77
2022/03/29 12:44:04;;;;;;;6.30;4.50;;;;;;;;;;5097726;28;20214;-77
2022/03/29 12:46:30;;;;;;;7.63;4.90;;;;;;;;;;5115967;28;20167;-76
2022/03/29 12:48:57;;;;;;;5.27;4.07;;;;;;;;;;5097945;28;20172;-77
2022/03/29 12:51:27;;;;;;;6.17;4.60;;;;;;;;;;5081111;28;20175;-76
2022/03/29 12:53:54;;;;;;;7.60;4.63;;;;;;;;;;5115753;28;20191;-77
2022/03/29 12:56:39;;;;;;;6.63;4.73;;;;;;;;;;5115844;28;20644;-77
2022/03/29 12:59:23;;;;;;;6.90;5.07;;;;;;;;;;5097848;28;20187;-77
2022/03/29 13:01:50;;;;;;;7.10;4.80;;;;;;;;;;5097148;28;20179;-77
2022/03/29 13:04:16;;;;;;;5.97;4.33;;;;;;;;;;5115710;28;20286;-77
2022/03/29 13:06:43;;;;;;;6.80;4.60;;;;;;;;;;5097495;28;20167;-77
2022/03/29 13:09:19;;;;;;;5.63;4.30;;;;;;;;;;5080921;28;20171;-77
2022/03/29 13:11:45;;;;;;;6.13;4.60;;;;;;;;;;5097368;28;20167;-77
2022/03/29 13:14:12;;;;;;;6.37;4.57;;;;;;;;;;5080281;28;20196;-76
2022/03/29 13:16:50;;;;;;;6.30;4.60;;;;;;;;;;5080317;28;20190;-77
2022/03/29 13:19:16;;;;;;;5.47;4.07;;;;;;;;;;5097286;28;20175;-77
2022/03/29 13:21:45;;;;;;;5.87;4.13;;;;;;;;;;5097498;28;20182;-77
2022/03/29 13:24:14;;;;;;;6.67;4.10;;;;;;;;;;5081203;28;20689;-76
2022/03/29 13:26:40;;;;;;;6.60;4.27;;;;;;;;;;5097850;28;20171;-77
2022/03/29 13:29:08;;;;;;;5.30;4.03;;;;;;;;;;5080461;28;20274;-75
2022/03/29 13:31:34;;;;;;;5.30;4.20;;;;;;;;;;5097230;28;20668;-73
2022/03/29 13:34:02;;;;;;;4.17;3.23;;;;;;;;;;5097495;28;20211;-74
2022/03/29 13:36:29;;;;;;;5.67;3.70;;;;;;;;;;5097029;28;20172;-74
2022/03/29 13:38:56;;;;;;;6.50;3.53;;;;;;;;;;5080704;28;20278;-75
2022/03/29 13:41:25;;;;;;;6.13;3.80;;;;;;;;;;5096522;28;20186;-74
2022/03/29 13:43:52;;;;;;;6.00;3.87;;;;;;;;;;5096671;28;20207;-77
2022/03/29 13:46:22;;;;;;;5.33;4.27;;;;;;;;;;5096779;28;20179;-77
2022/03/29 13:48:48;;;;;;;5.40;3.73;;;;;;;;;;5114875;28;20175;-77
2022/03/29 13:51:15;;;;;;;5.53;4.10;;;;;;;;;;5096494;28;20172;-77
2022/03/29 13:53:42;;;;;;;5.37;3.93;;;;;;;;;;5079841;28;20211;-76
2022/03/29 13:56:09;;;;;;;7.10;3.90;;;;;;;;;;5114841;28;20277;-77
2022/03/29 13:58:35;;;;;;;5.00;3.90;;;;;;;;;;5115066;28;20270;-77
2022/03/29 14:01:01;;;;;;;6.33;4.13;;;;;;;;;;5079568;28;20257;-77
2022/03/29 14:03:28;;;;;;;6.50;4.10;;;;;;;;;;5096418;28;20214;-77
2022/03/29 14:05:54;;;;;;;5.03;4.03;;;;;;;;;;5096374;28;20192;-77
2022/03/29 14:08:21;;;;;;;5.67;4.00;;;;;;;;;;5096609;28;20260;-77
2022/03/29 14:10:47;;;;;;;5.30;3.87;;;;;;;;;;5079797;28;20202;-77
2022/03/29 14:13:14;;;;;;;4.73;4.00;;;;;;;;;;5095940;28;20203;-76
2022/03/29 14:15:47;;;;;;;5.30;3.90;;;;;;;;;;5095600;28;20182;-77
2022/03/29 14:18:14;;;;;;;5.73;3.80;;;;;;;;;;5095284;28;20229;-75
2022/03/29 14:20:40;;;;;;;5.67;4.00;;;;;;;;;;5095576;28;20229;-77
2022/03/29 14:23:07;;;;;;;5.27;4.13;;;;;;;;;;5095082;28;20203;-77
2022/03/29 14:25:36;;;;;;;5.13;4.40;;;;;;;;;;5078552;28;20183;-76
2022/03/29 14:28:07;;;;;;;5.83;4.10;;;;;;;;;;5113919;28;20231;-76
2022/03/29 14:30:34;;;;;;;5.70;4.57;;;;;;;;;;5094426;28;20197;-76
2022/03/29 14:33:00;;;;;;;5.87;4.50;;;;;;;;;;5095613;28;20195;-76
2022/03/29 14:35:26;;;;;;;7.23;4.20;;;;;;;;;;5095082;28;20555;-77
2022/03/29 14:37:53;;;;;;;6.87;4.30;;;;;;;;;;5113301;28;20164;-77
2022/03/29 14:40:20;;;;;;;6.03;4.20;;;;;;;;;;5095007;28;20182;-77